Time;durP1;ratioP1;P1;durP2;ratioP2;P2;SDS_P1;SDS_P2;PMS_P1;PMS_P2;Temp;Humidity;BMP_temperature;BMP_pressure;BME280_temperature;BME280_humidity;BME280_pressure;Samples;Min_cycle;Max_cycle;Signal;HPM_P1;HPM_P2
2022/12/26 00:01:52;;;;;;;23.45;2.55;;;;;;;-6.16;100.00;100385.56;5159748;27;20047;-63
2022/12/26 00:04:19;;;;;;;10.00;1.95;;;;;;;-5.93;100.00;100424.06;5160032;27;20046;-62
2022/12/26 00:06:45;;;;;;;13.70;2.92;;;;;;;-5.93;100.00;100446.28;5159672;27;20126;-65
2022/12/26 00:09:12;;;;;;;12.27;2.53;;;;;;;-5.63;100.00;100448.13;5160080;27;20042;-64
2022/12/26 00:11:38;;;;;;;5.43;2.45;;;;;;;-6.06;100.00;100437.63;5159616;27;20078;-64
2022/12/26 00:14:07;;;;;;;2.60;2.25;;;;;;;-5.83;100.00;100464.41;5159982;27;20072;-64
2022/12/26 00:16:34;;;;;;;14.55;2.67;;;;;;;-5.89;100.00;100467.16;5159849;27;20448;-65
2022/12/26 00:19:02;;;;;;;3.95;2.53;;;;;;;-5.82;100.00;100467.88;5159547;27;20061;-63
2022/12/26 00:21:29;;;;;;;4.45;2.88;;;;;;;-5.93;100.00;100474.81;5159592;27;20047;-66
2022/12/26 00:23:58;;;;;;;21.13;2.83;;;;;;;-6.01;100.00;100477.78;5159583;27;20316;-66
2022/12/26 00:26:26;;;;;;;19.08;2.92;;;;;;;-6.34;100.00;100478.16;5159473;27;20133;-65
2022/12/26 00:28:53;;;;;;;4.80;3.25;;;;;;;-6.13;100.00;100499.09;5159353;27;20043;-64
2022/12/26 00:31:21;;;;;;;4.93;2.38;;;;;;;-5.96;100.00;100515.34;5159543;27;20061;-63
2022/12/26 00:33:48;;;;;;;5.63;2.90;;;;;;;-5.56;100.00;100510.28;5159287;27;20078;-63
2022/12/26 00:36:17;;;;;;;4.72;2.72;;;;;;;-5.50;100.00;100505.88;5159640;27;20142;-61
2022/12/26 00:38:45;;;;;;;19.10;2.70;;;;;;;-5.89;100.00;100483.19;5159119;27;20061;-64
2022/12/26 00:41:13;;;;;;;12.32;2.50;;;;;;;-6.25;100.00;100490.19;5159059;27;20043;-63
2022/12/26 00:43:39;;;;;;;6.40;2.85;;;;;;;-5.78;100.00;100495.78;5159336;27;20082;-62
2022/12/26 00:46:06;;;;;;;5.60;2.80;;;;;;;-5.80;100.00;100479.16;5159010;27;20412;-62
2022/12/26 00:48:32;;;;;;;4.63;2.60;;;;;;;-6.27;100.00;100461.03;5159193;27;20047;-62
2022/12/26 00:50:59;;;;;;;4.32;2.85;;;;;;;-6.25;100.00;100469.66;5158918;27;20047;-65
2022/12/26 00:53:26;;;;;;;14.18;3.10;;;;;;;-6.06;100.00;100488.34;5159069;27;20091;-65
2022/12/26 00:55:53;;;;;;;6.75;2.53;;;;;;;-6.12;100.00;100492.72;5158968;27;20064;-65
2022/12/26 00:58:20;;;;;;;6.82;3.00;;;;;;;-6.03;100.00;100496.72;5159098;27;20054;-65
2022/12/26 01:00:46;;;;;;;3.08;2.63;;;;;;;-6.08;100.00;100493.88;5158859;27;20054;-64
2022/12/26 01:03:13;;;;;;;3.13;1.85;;;;;;;-6.71;100.00;100492.25;5159122;27;20047;-65
2022/12/26 01:05:40;;;;;;;15.73;3.67;;;;;;;-6.40;100.00;100502.03;5158709;27;20150;-64
2022/12/26 01:08:06;;;;;;;22.05;3.78;;;;;;;-6.48;100.00;100496.16;5159008;27;20053;-62
2022/12/26 01:10:33;;;;;;;9.88;3.58;;;;;;;-6.88;100.00;100493.84;5158504;27;20137;-65
2022/12/26 01:12:59;;;;;;;29.13;3.85;;;;;;;-6.36;100.00;100513.09;5158557;27;20399;-62
2022/12/26 01:15:26;;;;;;;8.48;3.45;;;;;;;-6.79;100.00;100507.75;5158682;27;20046;-64
2022/12/26 01:17:52;;;;;;;7.28;3.35;;;;;;;-6.54;100.00;100515.72;5158787;27;20107;-63
2022/12/26 01:20:18;;;;;;;49.15;4.63;;;;;;;-6.84;100.00;100508.38;5158679;27;20137;-64
2022/12/26 01:22:44;;;;;;;19.35;5.22;;;;;;;-6.36;100.00;100525.59;5158436;27;20047;-62
2022/12/26 01:25:11;;;;;;;9.75;4.60;;;;;;;-6.09;100.00;100526.16;5158824;27;20043;-65
2022/12/26 01:27:37;;;;;;;59.67;5.07;;;;;;;-6.35;100.00;100514.72;5158401;27;20365;-64
2022/12/26 01:30:06;;;;;;;30.27;5.75;;;;;;;-7.06;100.00;100509.75;5158766;27;20050;-62
2022/12/26 01:32:32;;;;;;;10.68;5.03;;;;;;;-6.64;100.00;100526.88;5158235;27;20057;-65
2022/12/26 01:34:58;;;;;;;9.90;4.32;;;;;;;-6.50;100.00;100540.91;5158760;27;20067;-62
2022/12/26 01:37:25;;;;;;;14.25;4.60;;;;;;;-6.45;100.00;100531.22;5158499;27;20050;-65
2022/12/26 01:39:51;;;;;;;8.60;4.70;;;;;;;-6.67;100.00;100511.31;5158203;27;20051;-62
2022/12/26 01:42:21;;;;;;;9.13;3.95;;;;;;;-6.38;100.00;100506.34;5158487;27;20408;-63
2022/12/26 01:45:04;;;;;;;14.68;5.20;;;;;;;-6.74;100.00;100484.69;5158169;27;20139;-62
2022/12/26 01:47:39;;;;;;;16.27;5.53;;;;;;;-6.81;100.00;100496.47;5158377;27;20085;-64
2022/12/26 01:50:16;;;;;;;11.85;5.43;;;;;;;-6.55;100.00;100508.75;5158072;27;20046;-64
2022/12/26 01:52:46;;;;;;;13.82;6.63;;;;;;;-6.56;100.00;100499.09;5158478;27;20100;-62
2022/12/26 01:55:16;;;;;;;14.18;6.68;;;;;;;-6.80;100.00;100482.09;5158060;27;20130;-64
2022/12/26 01:57:47;;;;;;;13.43;5.82;;;;;;;-6.70;100.00;100482.41;5157942;27;20141;-62
2022/12/26 02:00:14;;;;;;;15.20;5.85;;;;;;;-6.34;100.00;100478.97;5157981;27;20429;-65
2022/12/26 02:05:33;;;;;;;22.40;5.75;;;;;;;-6.67;100.00;100477.44;5157244;27;20115;-62
2022/12/26 02:08:01;;;;;;;16.85;7.57;;;;;;;-6.58;100.00;100466.50;5157734;27;20094;-63
2022/12/26 02:10:31;;;;;;;27.77;7.65;;;;;;;-6.73;100.00;100470.34;5158172;27;20362;-66
2022/12/26 02:12:58;;;;;;;34.13;7.78;;;;;;;-6.95;100.00;100464.56;5157837;27;20057;-65
2022/12/26 02:15:25;;;;;;;15.32;7.43;;;;;;;-6.70;100.00;100477.88;5158205;27;20050;-65
2022/12/26 02:17:51;;;;;;;18.08;7.03;;;;;;;-6.81;100.00;100475.94;5157767;27;20054;-62
2022/12/26 02:20:20;;;;;;;16.65;6.95;;;;;;;-6.81;100.00;100465.28;5157630;27;20055;-64
2022/12/26 02:23:28;;;;;;;15.63;7.15;;;;;;;-6.57;100.00;100478.81;5159272;27;20046;-65
2022/12/26 02:26:30;;;;;;;19.92;7.53;;;;;;;-6.50;100.00;100474.22;5161400;27;20129;-65
2022/12/26 02:29:35;;;;;;;21.00;7.80;;;;;;;-6.14;100.00;100448.59;5161818;27;20043;-65
2022/12/26 02:32:11;;;;;;;19.52;8.18;;;;;;;-6.42;100.00;100416.06;5157893;27;20076;-62
2022/12/26 02:34:49;;;;;;;17.67;7.68;;;;;;;-6.44;100.00;100390.63;5161186;27;20480;-63
2022/12/26 02:37:27;;;;;;;24.67;7.35;;;;;;;-6.68;100.00;100357.66;5161536;27;20056;-63
2022/12/26 02:40:11;;;;;;;19.08;8.02;;;;;;;-6.48;100.00;100350.25;5161106;27;20046;-63
2022/12/26 02:42:52;;;;;;;15.38;6.93;;;;;;;-6.50;100.00;100327.47;5161488;27;20088;-62
2022/12/26 02:48:19;;;;;;;14.90;6.82;;;;;;;-6.74;100.00;100340.69;5160992;27;20343;-63
2022/12/26 03:13:47;;;;;;;10.30;5.57;;;;;;;-7.26;100.00;100445.94;5097465;28;20080;-60
2022/12/26 03:19:04;;;;;;;9.60;4.60;;;;;;;-7.14;100.00;100436.22;5134995;27;20445;-62
2022/12/26 03:21:37;;;;;;;13.68;5.03;;;;;;;-7.28;100.00;100435.53;5160509;27;20476;-60
2022/12/26 03:24:05;;;;;;;11.38;5.47;;;;;;;-7.08;100.00;100422.03;5160369;27;20065;-60
2022/12/26 03:26:42;;;;;;;9.57;5.47;;;;;;;-7.45;100.00;100397.94;5160496;27;20133;-63
2022/12/26 03:31:55;;;;;;;8.50;4.35;;;;;;;-7.58;100.00;100380.19;5160802;27;20308;-62
2022/12/26 03:34:22;;;;;;;9.02;4.80;;;;;;;-7.68;100.00;100379.88;5158808;27;20046;-60
2022/12/26 03:37:20;;;;;;;6.97;4.68;;;;;;;-7.52;100.00;100407.84;5160213;27;20463;-62
2022/12/26 04:19:51;;;;;;;6.35;4.13;;;;;;;-7.37;100.00;100226.34;5159818;27;20053;-62
2022/12/26 04:44:54;;;;;;;7.50;3.75;;;;;;;-8.04;100.00;100143.66;5158804;27;20049;-61
2022/12/26 04:47:21;;;;;;;5.05;3.15;;;;;;;-7.89;100.00;100148.66;5159222;27;20474;-63
2022/12/26 04:55:12;;;;;;;6.78;3.95;;;;;;;-7.60;100.00;100206.53;5157651;27;20162;-62
2022/12/26 04:57:38;;;;;;;8.43;4.45;;;;;;;-7.46;100.00;100196.53;5159115;27;20094;-64
2022/12/26 05:00:06;;;;;;;10.27;5.72;;;;;;;-7.27;100.00;100189.34;5158602;27;20139;-62
2022/12/26 05:10:46;;;;;;;11.90;5.18;;;;;;;-7.63;100.00;100164.34;5158720;27;20052;-65
2022/12/26 05:13:12;;;;;;;12.32;5.72;;;;;;;-7.68;100.00;100145.56;5158245;27;20061;-61
2022/12/26 05:29:18;;;;;;;12.23;5.07;;;;;;;-7.98;100.00;100163.25;5158184;27;20081;-64
2022/12/26 05:31:45;;;;;;;11.05;6.28;;;;;;;-7.88;100.00;100158.25;5157921;27;20054;-62
2022/12/26 05:34:14;;;;;;;12.07;7.22;;;;;;;-7.70;100.00;100154.78;5158084;27;20047;-61
2022/12/26 05:36:47;;;;;;;15.60;7.30;;;;;;;-7.45;100.00;100138.75;5158417;27;20118;-63
2022/12/26 05:39:14;;;;;;;15.43;7.95;;;;;;;-7.57;100.00;100099.53;5158046;27;20051;-64
2022/12/26 05:41:40;;;;;;;12.98;7.05;;;;;;;-8.01;100.00;100042.09;5158191;27;20054;-68
2022/12/26 05:44:07;;;;;;;18.27;7.95;;;;;;;-7.82;100.00;100075.66;5158039;27;20051;-70
2022/12/26 05:46:34;;;;;;;10.25;5.90;;;;;;;-8.14;100.00;100066.19;5157947;27;20111;-68
2022/12/26 05:49:01;;;;;;;17.58;8.15;;;;;;;-7.73;100.00;100113.47;5157915;27;20331;-69
2022/12/26 05:51:27;;;;;;;18.02;8.23;;;;;;;-7.78;100.00;100092.00;5157536;27;20051;-68
2022/12/26 05:53:54;;;;;;;12.00;6.68;;;;;;;-7.84;100.00;100093.69;5157671;27;20050;-68
2022/12/26 05:56:20;;;;;;;19.13;9.00;;;;;;;-7.66;100.00;100100.09;5157841;27;20062;-59
2022/12/26 05:58:47;;;;;;;26.88;10.02;;;;;;;-7.84;100.00;100066.28;5157178;27;20046;-68
2022/12/26 06:01:15;;;;;;;22.70;10.48;;;;;;;-8.14;100.00;100043.03;5157695;27;20095;-59
2022/12/26 06:03:43;;;;;;;20.85;7.95;;;;;;;-8.30;100.00;100047.13;5157812;27;20137;-58
2022/12/26 06:06:10;;;;;;;16.50;8.00;;;;;;;-8.36;100.00;100074.59;5157474;27;20138;-60
2022/12/26 06:08:37;;;;;;;18.55;8.38;;;;;;;-8.32;100.00;100105.03;5157641;27;20047;-57
2022/12/26 06:11:05;;;;;;;16.17;8.38;;;;;;;-8.26;100.00;100129.94;5157368;27;20051;-55
2022/12/26 06:13:31;;;;;;;11.57;6.28;;;;;;;-8.46;100.00;100145.25;5157711;27;20139;-59
2022/12/26 06:15:57;;;;;;;13.50;7.38;;;;;;;-8.63;100.00;100155.59;5157305;27;20111;-60
2022/12/26 06:18:24;;;;;;;12.75;7.03;;;;;;;-8.77;100.00;100174.28;5157844;27;20051;-55
2022/12/26 06:20:50;;;;;;;16.80;6.38;;;;;;;-8.83;100.00;100201.75;5157126;27;20065;-60
2022/12/26 06:23:17;;;;;;;13.85;6.47;;;;;;;-8.57;100.00;100269.06;5157202;27;20167;-55
2022/12/26 06:25:43;;;;;;;10.70;6.80;;;;;;;-8.46;100.00;100279.06;5157136;27;20164;-63
2022/12/26 06:28:09;;;;;;;21.02;7.53;;;;;;;-8.14;100.00;100298.47;5157289;27;20380;-61
2022/12/26 06:30:35;;;;;;;9.80;4.70;;;;;;;-8.58;100.00;100286.06;5157218;27;20106;-62
2022/12/26 06:33:02;;;;;;;14.77;6.00;;;;;;;-8.48;100.00;100298.91;5157123;27;20050;-60
2022/12/26 06:35:28;;;;;;;8.80;4.93;;;;;;;-8.92;100.00;100311.16;5157318;27;20046;-61
2022/12/26 06:37:54;;;;;;;10.73;6.50;;;;;;;-8.22;100.00;100362.59;5157059;27;20086;-59
2022/12/26 06:40:21;;;;;;;11.32;6.25;;;;;;;-8.29;100.00;100362.63;5157387;27;20051;-62
2022/12/26 06:42:47;;;;;;;14.05;7.65;;;;;;;-7.77;100.00;100357.19;5157203;27;20106;-63
2022/12/26 06:45:13;;;;;;;11.00;5.60;;;;;;;-8.42;100.00;100298.06;5157473;27;20042;-62
2022/12/26 06:47:40;;;;;;;14.07;6.95;;;;;;;-8.26;100.00;100294.03;5157014;27;20065;-62
2022/12/26 06:50:06;;;;;;;10.65;4.65;;;;;;;-8.60;100.00;100290.75;5157526;27;20046;-63
2022/12/26 06:52:33;;;;;;;7.45;4.53;;;;;;;-8.76;100.00;100294.75;5157060;27;20043;-63
2022/12/26 06:54:59;;;;;;;12.23;5.05;;;;;;;-8.25;100.00;100320.44;5157009;27;20057;-63
2022/12/26 06:57:26;;;;;;;9.18;5.07;;;;;;;-8.58;100.00;100310.81;5157288;27;20051;-63
2022/12/26 06:59:52;;;;;;;5.50;3.13;;;;;;;-8.78;100.00;100299.44;5156825;27;20398;-63
2022/12/26 07:02:18;;;;;;;5.38;3.53;;;;;;;-8.48;100.00;100323.66;5157025;27;20046;-64
2022/12/26 07:04:44;;;;;;;9.68;4.43;;;;;;;-8.36;100.00;100324.59;5156967;27;20305;-64
2022/12/26 07:07:11;;;;;;;6.43;3.83;;;;;;;-8.51;100.00;100321.41;5157032;27;20061;-63
2022/12/26 07:09:37;;;;;;;6.63;3.63;;;;;;;-8.38;100.00;100328.53;5159297;27;20054;-64
2022/12/26 07:12:03;;;;;;;5.63;3.55;;;;;;;-8.23;100.00;100329.03;5160714;27;20047;-64
2022/12/26 07:14:30;;;;;;;4.97;2.80;;;;;;;-8.37;100.00;100320.28;5160323;27;20063;-64
2022/12/26 07:16:57;;;;;;;7.07;3.80;;;;;;;-8.10;100.00;100323.59;5160652;27;20057;-63
2022/12/26 07:19:23;;;;;;;7.22;4.38;;;;;;;-7.79;100.00;100303.38;5160490;27;20153;-63
2022/12/26 07:21:49;;;;;;;4.88;3.03;;;;;;;-7.94;100.00;100262.91;5160023;27;20047;-63
2022/12/26 07:24:17;;;;;;;8.02;4.32;;;;;;;-8.24;100.00;100236.94;5160483;27;20054;-64
2022/12/26 07:26:44;;;;;;;9.38;3.35;;;;;;;-8.19;100.00;100231.78;5160107;27;20077;-64
2022/12/26 07:29:11;;;;;;;5.82;3.00;;;;;;;-8.32;100.00;100229.22;5160066;27;20050;-64
2022/12/26 07:31:39;;;;;;;3.88;2.70;;;;;;;-8.56;100.00;100236.97;5160007;27;20296;-63
2022/12/26 07:34:05;;;;;;;2.78;2.20;;;;;;;-8.46;100.00;100247.16;5160228;27;20142;-64
2022/12/26 07:36:32;;;;;;;8.07;4.85;;;;;;;-7.87;100.00;100269.00;5159701;27;20483;-62
2022/12/26 07:38:58;;;;;;;5.50;3.58;;;;;;;-7.89;100.00;100244.47;5160230;27;20050;-62
2022/12/26 07:44:09;;;;;;;15.23;6.22;;;;;;;-8.16;100.00;100239.34;5160222;27;20114;-57
2022/12/26 07:46:35;;;;;;;10.02;5.15;;;;;;;-8.40;100.00;100248.13;5159797;27;20058;-62
2022/12/26 07:49:02;;;;;;;8.52;4.93;;;;;;;-7.79;100.00;100287.38;5159546;27;20331;-58
2022/12/26 07:51:29;;;;;;;7.72;4.35;;;;;;;-8.09;100.00;100279.22;5159796;27;20134;-57
2022/12/26 07:53:55;;;;;;;4.45;3.65;;;;;;;-8.28;100.00;100275.63;5159562;27;20047;-58
2022/12/26 07:56:21;;;;;;;4.97;3.90;;;;;;;-8.30;100.00;100270.56;5159849;27;20047;-59
2022/12/26 07:58:48;;;;;;;6.15;4.05;;;;;;;-8.39;100.00;100271.03;5159481;27;20431;-59
2022/12/26 08:01:14;;;;;;;7.25;3.35;;;;;;;-8.59;100.00;100274.63;5159736;27;20055;-60
2022/12/26 08:03:41;;;;;;;7.13;3.85;;;;;;;-7.92;100.00;100306.13;5159477;27;20053;-63
2022/12/26 08:06:09;;;;;;;6.07;3.80;;;;;;;-8.62;100.00;100287.53;5159859;27;20055;-59
2022/12/26 08:08:36;;;;;;;5.22;4.03;;;;;;;-8.58;100.00;100305.50;5159212;27;20368;-61
2022/12/26 08:11:03;;;;;;;3.97;3.40;;;;;;;-8.74;100.00;100315.78;5159636;27;20407;-57
2022/12/26 08:13:30;;;;;;;9.18;4.45;;;;;;;-8.55;100.00;100334.31;5159009;27;20447;-62
2022/12/26 08:15:57;;;;;;;6.78;4.20;;;;;;;-8.48;100.00;100336.13;5159442;27;20047;-61
2022/12/26 08:18:24;;;;;;;7.25;4.18;;;;;;;-8.46;100.00;100345.53;5159087;27;20104;-59
2022/12/26 08:20:50;;;;;;;3.88;3.50;;;;;;;-8.42;100.00;100346.75;5158072;27;20089;-55
2022/12/26 08:23:17;;;;;;;5.97;4.05;;;;;;;-8.23;100.00;100360.97;5158979;27;20225;-56
2022/12/26 08:25:44;;;;;;;7.82;3.83;;;;;;;-8.17;100.00;100360.09;5158705;27;20175;-60
2022/12/26 08:28:10;;;;;;;6.45;3.63;;;;;;;-7.83;100.00;100344.72;5158799;27;20065;-62
2022/12/26 08:30:38;;;;;;;10.68;5.88;;;;;;;-7.58;100.00;100329.59;5158671;27;20114;-62
2022/12/26 08:33:04;;;;;;;6.85;4.40;;;;;;;-8.14;100.00;100293.16;5158960;27;20043;-63
2022/12/26 08:35:32;;;;;;;7.30;3.95;;;;;;;-8.27;100.00;100284.44;5158661;27;20057;-61
2022/12/26 08:37:58;;;;;;;3.70;2.50;;;;;;;-8.34;100.00;100287.94;5159325;27;20046;-61
2022/12/26 08:40:25;;;;;;;5.93;4.50;;;;;;;-8.11;100.00;100291.91;5158695;27;20312;-64
2022/12/26 08:42:51;;;;;;;7.28;4.40;;;;;;;-8.17;100.00;100301.56;5158893;27;20425;-59
2022/12/26 08:45:18;;;;;;;5.10;4.30;;;;;;;-8.41;100.00;100302.34;5158561;27;20062;-60
2022/12/26 08:47:44;;;;;;;5.25;3.40;;;;;;;-8.50;100.00;100315.06;5158491;27;20051;-57
2022/12/26 08:50:11;;;;;;;5.32;2.72;;;;;;;-8.65;100.00;100323.31;5158701;27;20106;-64
2022/12/26 08:52:37;;;;;;;5.80;2.70;;;;;;;-8.62;100.00;100316.78;5159067;27;20042;-64
2022/12/26 08:55:04;;;;;;;6.70;4.03;;;;;;;-8.58;100.00;100313.47;5158972;27;20042;-62
2022/12/26 08:57:31;;;;;;;7.20;4.32;;;;;;;-8.68;100.00;100318.41;5158555;27;20103;-63
2022/12/26 08:59:57;;;;;;;9.98;4.63;;;;;;;-8.69;100.00;100322.13;5159013;27;20047;-63
2022/12/26 09:02:24;;;;;;;5.32;3.72;;;;;;;-8.38;100.00;100326.66;5158498;27;20078;-63
2022/12/26 09:04:50;;;;;;;6.03;3.83;;;;;;;-8.49;100.00;100319.38;5158856;27;20054;-60
2022/12/26 09:07:17;;;;;;;5.97;3.78;;;;;;;-8.33;100.00;100332.16;5158508;27;20061;-62
2022/12/26 09:09:43;;;;;;;2.45;2.03;;;;;;;-8.79;100.00;100335.84;5159090;27;20047;-61
2022/12/26 09:12:10;;;;;;;5.82;3.30;;;;;;;-8.66;100.00;100329.66;5158865;27;20118;-61
2022/12/26 09:14:37;;;;;;;7.30;4.55;;;;;;;-8.15;100.00;100327.97;5158630;27;20058;-63
2022/12/26 09:17:03;;;;;;;6.88;3.97;;;;;;;-8.00;100.00;100332.97;5158412;27;20111;-63
2022/12/26 09:19:31;;;;;;;7.28;4.40;;;;;;;-8.16;100.00;100336.94;5158468;27;20050;-62
2022/12/26 09:24:39;;;;;;;5.70;3.90;;;;;;;-7.65;100.00;100352.00;5157307;27;20043;-63
2022/12/26 09:27:05;;;;;;;5.50;3.90;;;;;;;-7.84;100.00;100367.88;5158487;27;20050;-62
2022/12/26 09:29:31;;;;;;;3.78;2.80;;;;;;;-8.15;100.00;100350.06;5157919;27;20134;-63
2022/12/26 09:31:58;;;;;;;4.70;3.78;;;;;;;-8.02;100.00;100349.16;5158104;27;20133;-62
2022/12/26 09:34:24;;;;;;;5.53;4.32;;;;;;;-7.62;100.00;100343.56;5157944;27;20157;-64
2022/12/26 09:36:51;;;;;;;7.65;4.90;;;;;;;-7.47;100.00;100341.38;5157930;27;20134;-63
2022/12/26 09:39:17;;;;;;;8.43;4.75;;;;;;;-7.19;100.00;100340.97;5158239;27;20134;-63
2022/12/26 09:41:57;;;;;;;4.05;2.70;;;;;;;-7.51;100.00;100331.41;5158218;27;20327;-62
2022/12/26 09:44:26;;;;;;;3.50;2.60;;;;;;;-7.69;100.00;100319.66;5158295;27;20152;-63
2022/12/26 09:47:06;;;;;;;8.20;4.15;;;;;;;-7.49;100.00;100310.69;5157879;27;20115;-63
2022/12/26 09:49:36;;;;;;;6.10;3.53;;;;;;;-7.53;100.00;100296.16;5158370;27;20078;-64
2022/12/26 09:52:09;;;;;;;8.07;4.22;;;;;;;-7.60;100.00;100280.25;5157942;27;20100;-63
2022/12/26 09:54:39;;;;;;;7.40;4.13;;;;;;;-7.40;100.00;100269.41;5158318;27;20047;-64
2022/12/26 09:57:13;;;;;;;5.28;3.60;;;;;;;-7.66;100.00;100273.16;5157828;27;20043;-63
2022/12/26 09:59:45;;;;;;;4.57;2.97;;;;;;;-7.71;100.00;100265.00;5157791;27;20086;-63
2022/12/26 10:02:17;;;;;;;5.75;3.28;;;;;;;-7.78;100.00;100257.06;5158023;27;20062;-62
2022/12/26 10:04:44;;;;;;;5.35;3.35;;;;;;;-8.03;100.00;100259.69;5157581;27;20046;-62
2022/12/26 10:07:20;;;;;;;6.38;3.40;;;;;;;-7.62;100.00;100267.16;5157855;27;20061;-64
2022/12/26 10:09:55;;;;;;;3.65;1.85;;;;;;;-7.87;100.00;100261.03;5157451;27;20043;-64
2022/12/26 10:12:36;;;;;;;6.32;2.85;;;;;;;-7.64;100.00;100258.56;5157897;27;20143;-64
2022/12/26 10:15:21;;;;;;;2.20;1.50;;;;;;;-7.70;100.00;100245.31;5157550;27;20055;-63
2022/12/26 10:17:55;;;;;;;4.07;2.30;;;;;;;-7.59;100.00;100226.78;5157410;27;20055;-63
2022/12/26 10:20:23;;;;;;;;;;;;;;;-7.27;100.00;100218.66;5158195;27;20107;-62
2022/12/26 10:23:11;;;;;;;5.03;2.80;;;;;;;-7.49;100.00;100212.97;5157482;27;20025;-62
2022/12/26 10:25:43;;;;;;;3.67;2.35;;;;;;;-7.26;100.00;100206.13;5157817;27;20139;-62
2022/12/26 10:28:16;;;;;;;2.35;1.45;;;;;;;-7.58;100.00;100192.97;5157530;27;20133;-63
2022/12/26 10:30:46;;;;;;;3.88;2.53;;;;;;;-7.48;100.00;100208.44;5157902;27;20047;-62
2022/12/26 10:33:17;;;;;;;4.72;2.38;;;;;;;-7.29;100.00;100202.09;5157451;27;20050;-63
2022/12/26 10:35:45;;;;;;;2.67;1.67;;;;;;;-7.40;100.00;100189.50;5157377;27;20057;-64
2022/12/26 10:38:18;;;;;;;3.15;2.13;;;;;;;-7.28;100.00;100192.25;5157179;27;20047;-64
2022/12/26 10:40:49;;;;;;;2.88;2.30;;;;;;;-6.94;100.00;100196.13;5157337;27;20047;-63
2022/12/26 10:43:27;;;;;;;8.73;3.05;;;;;;;-7.34;100.00;100191.28;5157788;27;20103;-64
2022/12/26 10:46:13;;;;;;;5.18;2.65;;;;;;;-7.04;100.00;100195.84;5160662;27;20054;-63
2022/12/26 10:48:40;;;;;;;6.18;3.03;;;;;;;-7.01;100.00;100193.56;5161233;27;20383;-64
2022/12/26 10:51:07;;;;;;;2.55;2.28;;;;;;;-7.13;100.00;100196.16;5160663;27;20052;-63
2022/12/26 10:53:35;;;;;;;8.10;3.30;;;;;;;-7.27;100.00;100189.34;5160458;27;20133;-63
2022/12/26 10:56:02;;;;;;;1.88;1.42;;;;;;;-7.23;100.00;100190.56;5160645;27;20043;-63
2022/12/26 10:58:33;;;;;;;7.88;3.28;;;;;;;-7.38;100.00;100204.22;5160420;27;20141;-63
2022/12/26 11:01:30;;;;;;;6.30;2.92;;;;;;;-7.14;100.00;100202.50;5160277;27;20436;-62
2022/12/26 11:03:57;;;;;;;9.20;3.90;;;;;;;-6.99;100.00;100209.34;5160799;27;20110;-63
2022/12/26 11:06:27;;;;;;;2.28;2.05;;;;;;;-7.15;100.00;100187.56;5160954;27;20078;-62
2022/12/26 11:08:54;;;;;;;7.15;3.17;;;;;;;-6.60;100.00;100199.97;5160330;27;20065;-63
2022/12/26 11:11:23;;;;;;;3.90;2.10;;;;;;;-7.25;100.00;100186.47;5160561;27;20353;-60
2022/12/26 11:13:52;;;;;;;13.05;3.80;;;;;;;-7.24;100.00;100185.44;5160381;27;20054;-60
2022/12/26 11:16:25;;;;;;;7.70;3.63;;;;;;;-6.93;100.00;100171.09;5160337;27;20452;-63
2022/12/26 11:18:52;;;;;;;8.48;4.10;;;;;;;-6.89;100.00;100170.44;5160158;27;20357;-62
2022/12/26 11:21:22;;;;;;;9.80;3.78;;;;;;;-6.98;100.00;100158.44;5160154;27;20050;-62
2022/12/26 11:23:51;;;;;;;4.63;2.33;;;;;;;-7.29;100.00;100153.31;5160241;27;20051;-63
2022/12/26 11:26:20;;;;;;;8.02;3.92;;;;;;;-6.78;100.00;100160.03;5160008;27;20106;-62
2022/12/26 11:28:47;;;;;;;5.95;4.07;;;;;;;-6.97;100.00;100151.25;5160354;27;20110;-60
2022/12/26 11:31:23;;;;;;;3.92;2.80;;;;;;;-7.00;100.00;100146.38;5159903;27;20111;-63
2022/12/26 11:33:50;;;;;;;6.80;3.58;;;;;;;-7.15;100.00;100152.13;5159982;27;20065;-61
2022/12/26 11:36:21;;;;;;;8.77;3.85;;;;;;;-7.02;100.00;100135.16;5159765;27;20467;-61
2022/12/26 11:38:53;;;;;;;5.57;3.50;;;;;;;-7.34;100.00;100138.00;5159748;27;20437;-61
2022/12/26 11:41:35;;;;;;;5.63;3.38;;;;;;;-6.67;100.00;100133.38;5159827;27;20061;-62
2022/12/26 11:44:16;;;;;;;6.22;3.78;;;;;;;-6.95;100.00;100127.88;5159774;27;20051;-60
2022/12/26 11:46:45;;;;;;;7.50;4.18;;;;;;;-6.52;100.00;100116.16;5160158;27;20098;-62
2022/12/26 11:49:19;;;;;;;7.82;4.20;;;;;;;-6.92;100.00;100106.09;5159682;27;20098;-62
2022/12/26 11:51:47;;;;;;;4.93;2.88;;;;;;;-6.93;100.00;100118.63;5160139;27;20519;-63
2022/12/26 11:54:34;;;;;;;6.72;4.03;;;;;;;-6.96;100.00;100115.59;5159522;27;20046;-62
2022/12/26 11:57:11;;;;;;;4.32;3.58;;;;;;;-7.18;100.00;100099.28;5159163;27;20046;-63
2022/12/26 11:59:38;;;;;;;3.50;2.50;;;;;;;-6.97;100.00;100103.28;5159800;27;20046;-61
2022/12/26 12:02:21;;;;;;;6.40;3.47;;;;;;;-6.87;100.00;100103.53;5159455;27;20139;-61
2022/12/26 12:04:51;;;;;;;9.48;4.45;;;;;;;-6.58;100.00;100103.75;5159922;27;20372;-61
2022/12/26 12:07:30;;;;;;;10.45;4.90;;;;;;;-6.73;100.00;100098.81;5159312;27;20047;-61
2022/12/26 12:10:02;;;;;;;11.13;4.63;;;;;;;-6.56;100.00;100097.16;5159513;27;20196;-62
2022/12/26 12:12:39;;;;;;;10.63;4.82;;;;;;;-6.62;100.00;100087.38;5159560;27;20046;-64
2022/12/26 12:15:12;;;;;;;10.25;4.72;;;;;;;-6.55;100.00;100087.28;5159221;27;20054;-62
2022/12/26 12:17:48;;;;;;;10.13;4.40;;;;;;;-6.53;100.00;100085.19;5159618;27;20261;-61
2022/12/26 12:20:30;;;;;;;6.85;4.40;;;;;;;-6.93;100.00;100078.63;5159000;27;20412;-63
2022/12/26 12:23:18;;;;;;;10.45;4.60;;;;;;;-6.42;100.00;100079.06;5159353;27;20195;-63
2022/12/26 12:25:56;;;;;;;22.77;5.05;;;;;;;-6.81;100.00;100064.50;5159107;27;20404;-63
2022/12/26 12:28:48;;;;;;;8.18;4.55;;;;;;;-6.71;100.00;100054.09;5159028;27;20096;-63
2022/12/26 12:31:24;;;;;;;10.10;4.85;;;;;;;-6.30;100.00;100055.84;5159291;27;20142;-63
2022/12/26 12:33:59;;;;;;;8.27;4.93;;;;;;;-6.87;100.00;100035.03;5159212;27;20061;-64
2022/12/26 12:36:33;;;;;;;11.55;3.95;;;;;;;-7.05;100.00;100035.13;5159550;27;20185;-62
2022/12/26 12:39:08;;;;;;;13.68;5.28;;;;;;;-6.62;100.00;100031.38;5158875;27;20051;-61
2022/12/26 12:41:56;;;;;;;9.20;4.25;;;;;;;-6.90;100.00;100024.84;5158789;27;20046;-62
2022/12/26 12:44:29;;;;;;;8.75;4.35;;;;;;;-6.97;100.00;100017.97;5159283;27;20324;-62
2022/12/26 12:47:03;;;;;;;9.90;5.00;;;;;;;-6.69;100.00;100004.00;5159124;27;20342;-63
2022/12/26 12:49:41;;;;;;;4.47;3.42;;;;;;;-7.02;100.00;100000.03;5159037;27;20087;-60
2022/12/26 12:52:21;;;;;;;8.95;5.45;;;;;;;-6.71;100.00;99984.75;5159251;27;20053;-63
2022/12/26 12:55:07;;;;;;;7.93;3.92;;;;;;;-6.48;100.00;99989.28;5159659;27;20042;-60
2022/12/26 12:57:40;;;;;;;15.80;4.30;;;;;;;-6.63;100.00;99993.22;5158853;27;20373;-62
2022/12/26 13:00:16;;;;;;;12.60;5.82;;;;;;;-6.30;100.00;99996.34;5158802;27;20046;-63
2022/12/26 13:02:48;;;;;;;7.95;3.85;;;;;;;-6.81;100.00;99982.66;5158688;27;20458;-61
2022/12/26 13:05:22;;;;;;;11.43;5.30;;;;;;;-6.37;100.00;99983.09;5158499;27;20486;-63
2022/12/26 13:07:54;;;;;;;9.40;4.75;;;;;;;-6.59;100.00;99977.56;5158567;27;20102;-63
2022/12/26 13:10:26;;;;;;;9.82;5.20;;;;;;;-6.55;100.00;99980.59;5158495;27;20050;-63
2022/12/26 13:12:53;;;;;;;10.57;5.30;;;;;;;-6.83;100.00;99971.44;5158779;27;20154;-62
2022/12/26 13:15:31;;;;;;;21.33;6.50;;;;;;;-6.67;100.00;99962.72;5158441;27;20046;-62
2022/12/26 13:18:01;;;;;;;9.00;4.80;;;;;;;-6.77;100.00;99965.16;5158210;27;20402;-62
2022/12/26 13:20:37;;;;;;;17.70;5.65;;;;;;;-6.74;100.00;99954.03;5158464;27;20572;-62
2022/12/26 13:26:03;;;;;;;13.90;6.05;;;;;;;-6.24;100.00;99921.47;5158375;27;20335;-62
2022/12/26 13:28:35;;;;;;;20.75;6.15;;;;;;;-6.47;100.00;99922.34;5158138;27;20058;-63
2022/12/26 13:31:01;;;;;;;9.07;5.50;;;;;;;-6.42;100.00;99925.13;5158449;27;20141;-63
2022/12/26 13:33:28;;;;;;;8.52;4.00;;;;;;;-6.60;100.00;99927.13;5158178;27;20323;-62
2022/12/26 13:35:57;;;;;;;10.43;3.97;;;;;;;-6.30;100.00;99918.94;5158351;27;20050;-62
2022/12/26 13:38:25;;;;;;;11.30;5.70;;;;;;;-6.19;100.00;99918.13;5158166;27;20096;-62
2022/12/26 13:43:53;;;;;;;10.75;5.20;;;;;;;-6.55;100.00;99912.03;5157995;27;20063;-62